sensor_id;sensor_type;location;lat;lon;timestamp;P1;durP1;ratioP1;P2;durP2;ratioP2
41077;SDS011;26823;42.662;23.352;2023-08-30T00:00:17;15.43;;;9.00;;
41077;SDS011;26823;42.662;23.352;2023-08-30T00:02:43;12.18;;;9.15;;
41077;SDS011;26823;42.662;23.352;2023-08-30T00:05:09;13.30;;;9.60;;
41077;SDS011;26823;42.662;23.352;2023-08-30T00:07:35;12.30;;;9.48;;
41077;SDS011;26823;42.662;23.352;2023-08-30T00:10:01;11.48;;;9.85;;
41077;SDS011;26823;42.662;23.352;2023-08-30T00:12:27;15.25;;;10.50;;
41077;SDS011;26823;42.662;23.352;2023-08-30T00:14:53;10.15;;;8.50;;
41077;SDS011;26823;42.662;23.352;2023-08-30T00:17:19;12.27;;;9.25;;
41077;SDS011;26823;42.662;23.352;2023-08-30T00:19:45;15.32;;;9.77;;
41077;SDS011;26823;42.662;23.352;2023-08-30T00:22:11;10.27;;;9.07;;
41077;SDS011;26823;42.662;23.352;2023-08-30T00:24:37;12.07;;;9.20;;
41077;SDS011;26823;42.662;23.352;2023-08-30T00:27:02;13.43;;;8.43;;
41077;SDS011;26823;42.662;23.352;2023-08-30T00:29:28;9.00;;;8.05;;
41077;SDS011;26823;42.662;23.352;2023-08-30T00:31:54;12.07;;;8.65;;
41077;SDS011;26823;42.662;23.352;2023-08-30T00:34:20;10.85;;;7.60;;
41077;SDS011;26823;42.662;23.352;2023-08-30T00:36:45;9.93;;;7.38;;
41077;SDS011;26823;42.662;23.352;2023-08-30T00:39:11;7.88;;;7.07;;
41077;SDS011;26823;42.662;23.352;2023-08-30T00:41:38;12.40;;;7.25;;
41077;SDS011;26823;42.662;23.352;2023-08-30T00:44:03;8.70;;;7.07;;
41077;SDS011;26823;42.662;23.352;2023-08-30T00:46:28;8.93;;;6.90;;
41077;SDS011;26823;42.662;23.352;2023-08-30T00:48:54;12.65;;;7.30;;
41077;SDS011;26823;42.662;23.352;2023-08-30T00:51:20;9.75;;;7.13;;
41077;SDS011;26823;42.662;23.352;2023-08-30T00:53:46;12.40;;;7.30;;
41077;SDS011;26823;42.662;23.352;2023-08-30T00:56:12;17.08;;;7.75;;
41077;SDS011;26823;42.662;23.352;2023-08-30T00:58:38;11.27;;;7.18;;
41077;SDS011;26823;42.662;23.352;2023-08-30T01:01:10;9.75;;;6.95;;
41077;SDS011;26823;42.662;23.352;2023-08-30T01:03:37;8.05;;;6.75;;
41077;SDS011;26823;42.662;23.352;2023-08-30T01:06:03;11.95;;;6.65;;
41077;SDS011;26823;42.662;23.352;2023-08-30T01:08:28;9.20;;;7.13;;
41077;SDS011;26823;42.662;23.352;2023-08-30T01:13:39;13.60;;;7.28;;
41077;SDS011;26823;42.662;23.352;2023-08-30T01:16:25;7.90;;;6.57;;
41077;SDS011;26823;42.662;23.352;2023-08-30T01:18:51;11.13;;;6.43;;
41077;SDS011;26823;42.662;23.352;2023-08-30T01:21:25;8.32;;;6.93;;
41077;SDS011;26823;42.662;23.352;2023-08-30T01:23:58;8.07;;;6.25;;
41077;SDS011;26823;42.662;23.352;2023-08-30T01:26:40;10.48;;;6.78;;
41077;SDS011;26823;42.662;23.352;2023-08-30T01:29:10;8.73;;;7.35;;
41077;SDS011;26823;42.662;23.352;2023-08-30T01:31:37;9.95;;;6.20;;
41077;SDS011;26823;42.662;23.352;2023-08-30T01:34:05;8.68;;;6.68;;
41077;SDS011;26823;42.662;23.352;2023-08-30T01:36:31;8.30;;;6.72;;
41077;SDS011;26823;42.662;23.352;2023-08-30T01:38:59;8.27;;;6.38;;
41077;SDS011;26823;42.662;23.352;2023-08-30T01:41:28;8.30;;;6.55;;
41077;SDS011;26823;42.662;23.352;2023-08-30T01:43:55;10.77;;;6.68;;
41077;SDS011;26823;42.662;23.352;2023-08-30T01:46:24;8.25;;;6.07;;
41077;SDS011;26823;42.662;23.352;2023-08-30T01:48:49;11.88;;;6.35;;
41077;SDS011;26823;42.662;23.352;2023-08-30T01:51:15;9.10;;;5.63;;
41077;SDS011;26823;42.662;23.352;2023-08-30T01:53:41;8.57;;;6.20;;
41077;SDS011;26823;42.662;23.352;2023-08-30T01:56:08;11.02;;;6.47;;
41077;SDS011;26823;42.662;23.352;2023-08-30T01:58:34;9.65;;;6.65;;
41077;SDS011;26823;42.662;23.352;2023-08-30T02:00:59;7.97;;;6.30;;
41077;SDS011;26823;42.662;23.352;2023-08-30T02:03:25;8.85;;;6.38;;
41077;SDS011;26823;42.662;23.352;2023-08-30T02:09:02;10.98;;;6.07;;
41077;SDS011;26823;42.662;23.352;2023-08-30T02:11:32;10.23;;;6.38;;
41077;SDS011;26823;42.662;23.352;2023-08-30T02:14:00;10.60;;;6.95;;
41077;SDS011;26823;42.662;23.352;2023-08-30T02:16:29;11.52;;;6.47;;
41077;SDS011;26823;42.662;23.352;2023-08-30T02:18:56;7.97;;;6.15;;
41077;SDS011;26823;42.662;23.352;2023-08-30T02:21:22;12.55;;;7.55;;
41077;SDS011;26823;42.662;23.352;2023-08-30T02:23:51;10.23;;;6.05;;
41077;SDS011;26823;42.662;23.352;2023-08-30T02:26:19;11.15;;;6.63;;
41077;SDS011;26823;42.662;23.352;2023-08-30T02:28:45;9.35;;;6.50;;
41077;SDS011;26823;42.662;23.352;2023-08-30T02:31:10;8.85;;;6.18;;
41077;SDS011;26823;42.662;23.352;2023-08-30T02:33:36;6.85;;;5.80;;
41077;SDS011;26823;42.662;23.352;2023-08-30T02:36:02;13.90;;;6.18;;
41077;SDS011;26823;42.662;23.352;2023-08-30T02:38:28;9.82;;;6.07;;
41077;SDS011;26823;42.662;23.352;2023-08-30T02:40:54;6.97;;;6.28;;
41077;SDS011;26823;42.662;23.352;2023-08-30T02:43:19;6.82;;;6.13;;
41077;SDS011;26823;42.662;23.352;2023-08-30T02:45:44;9.32;;;6.35;;
41077;SDS011;26823;42.662;23.352;2023-08-30T02:48:10;7.53;;;5.85;;
41077;SDS011;26823;42.662;23.352;2023-08-30T02:50:35;9.60;;;6.30;;
41077;SDS011;26823;42.662;23.352;2023-08-30T02:53:01;9.75;;;7.03;;
41077;SDS011;26823;42.662;23.352;2023-08-30T02:55:26;8.05;;;6.82;;
41077;SDS011;26823;42.662;23.352;2023-08-30T02:57:51;8.63;;;6.57;;
41077;SDS011;26823;42.662;23.352;2023-08-30T03:00:17;9.32;;;7.13;;
41077;SDS011;26823;42.662;23.352;2023-08-30T03:02:42;9.95;;;6.20;;
41077;SDS011;26823;42.662;23.352;2023-08-30T03:05:08;10.60;;;7.07;;
41077;SDS011;26823;42.662;23.352;2023-08-30T03:07:33;9.80;;;6.35;;
41077;SDS011;26823;42.662;23.352;2023-08-30T03:09:59;9.60;;;6.55;;
41077;SDS011;26823;42.662;23.352;2023-08-30T03:12:24;13.00;;;8.70;;
41077;SDS011;26823;42.662;23.352;2023-08-30T03:14:50;10.02;;;7.20;;
41077;SDS011;26823;42.662;23.352;2023-08-30T03:17:15;9.73;;;6.90;;
41077;SDS011;26823;42.662;23.352;2023-08-30T03:19:41;11.23;;;7.57;;
41077;SDS011;26823;42.662;23.352;2023-08-30T03:22:06;10.05;;;6.95;;
41077;SDS011;26823;42.662;23.352;2023-08-30T03:24:31;8.45;;;7.03;;
41077;SDS011;26823;42.662;23.352;2023-08-30T03:26:57;8.77;;;6.63;;
41077;SDS011;26823;42.662;23.352;2023-08-30T03:29:22;9.93;;;7.20;;
41077;SDS011;26823;42.662;23.352;2023-08-30T03:31:48;9.02;;;7.20;;
41077;SDS011;26823;42.662;23.352;2023-08-30T03:34:13;11.70;;;7.55;;
41077;SDS011;26823;42.662;23.352;2023-08-30T03:36:40;9.05;;;7.07;;
41077;SDS011;26823;42.662;23.352;2023-08-30T03:39:07;8.93;;;7.05;;
41077;SDS011;26823;42.662;23.352;2023-08-30T03:41:32;10.10;;;6.78;;
41077;SDS011;26823;42.662;23.352;2023-08-30T03:43:58;10.13;;;7.55;;
41077;SDS011;26823;42.662;23.352;2023-08-30T03:46:23;12.88;;;8.25;;
41077;SDS011;26823;42.662;23.352;2023-08-30T03:48:49;12.00;;;7.18;;
41077;SDS011;26823;42.662;23.352;2023-08-30T03:51:14;11.43;;;8.10;;
41077;SDS011;26823;42.662;23.352;2023-08-30T03:53:39;9.93;;;8.05;;
41077;SDS011;26823;42.662;23.352;2023-08-30T03:56:05;10.57;;;6.68;;
41077;SDS011;26823;42.662;23.352;2023-08-30T03:58:31;8.32;;;7.35;;
41077;SDS011;26823;42.662;23.352;2023-08-30T04:00:56;13.20;;;7.72;;
41077;SDS011;26823;42.662;23.352;2023-08-30T04:03:22;10.60;;;8.73;;
41077;SDS011;26823;42.662;23.352;2023-08-30T04:05:47;13.75;;;9.60;;
41077;SDS011;26823;42.662;23.352;2023-08-30T04:08:12;14.38;;;8.98;;
41077;SDS011;26823;42.662;23.352;2023-08-30T04:10:38;17.67;;;9.98;;
41077;SDS011;26823;42.662;23.352;2023-08-30T04:13:05;13.57;;;10.05;;
41077;SDS011;26823;42.662;23.352;2023-08-30T04:15:32;12.23;;;9.40;;
41077;SDS011;26823;42.662;23.352;2023-08-30T04:17:59;12.80;;;9.85;;
41077;SDS011;26823;42.662;23.352;2023-08-30T04:20:24;13.43;;;10.82;;
41077;SDS011;26823;42.662;23.352;2023-08-30T04:22:49;17.30;;;9.60;;
41077;SDS011;26823;42.662;23.352;2023-08-30T04:25:15;14.32;;;10.43;;
41077;SDS011;26823;42.662;23.352;2023-08-30T04:27:40;13.50;;;10.70;;
41077;SDS011;26823;42.662;23.352;2023-08-30T04:30:06;15.60;;;10.05;;
41077;SDS011;26823;42.662;23.352;2023-08-30T04:32:31;14.65;;;10.27;;
41077;SDS011;26823;42.662;23.352;2023-08-30T04:34:57;15.07;;;10.25;;
41077;SDS011;26823;42.662;23.352;2023-08-30T04:37:23;15.48;;;10.23;;
41077;SDS011;26823;42.662;23.352;2023-08-30T04:39:48;13.07;;;9.30;;
41077;SDS011;26823;42.662;23.352;2023-08-30T04:42:14;13.23;;;10.55;;
41077;SDS011;26823;42.662;23.352;2023-08-30T04:44:40;15.60;;;10.13;;
41077;SDS011;26823;42.662;23.352;2023-08-30T04:47:05;13.95;;;9.93;;
41077;SDS011;26823;42.662;23.352;2023-08-30T04:49:30;12.35;;;9.20;;
41077;SDS011;26823;42.662;23.352;2023-08-30T04:51:56;20.10;;;10.13;;
41077;SDS011;26823;42.662;23.352;2023-08-30T04:54:21;13.50;;;9.10;;
41077;SDS011;26823;42.662;23.352;2023-08-30T04:56:46;13.00;;;8.52;;
41077;SDS011;26823;42.662;23.352;2023-08-30T04:59:12;12.93;;;8.73;;
41077;SDS011;26823;42.662;23.352;2023-08-30T05:01:37;17.65;;;8.63;;
41077;SDS011;26823;42.662;23.352;2023-08-30T05:04:04;15.80;;;8.50;;
41077;SDS011;26823;42.662;23.352;2023-08-30T05:06:30;15.85;;;8.60;;
41077;SDS011;26823;42.662;23.352;2023-08-30T05:08:56;15.27;;;8.68;;
41077;SDS011;26823;42.662;23.352;2023-08-30T05:11:23;15.20;;;9.50;;
41077;SDS011;26823;42.662;23.352;2023-08-30T05:13:48;14.05;;;8.90;;
41077;SDS011;26823;42.662;23.352;2023-08-30T05:16:14;12.20;;;8.43;;
41077;SDS011;26823;42.662;23.352;2023-08-30T05:18:39;13.68;;;8.77;;
41077;SDS011;26823;42.662;23.352;2023-08-30T05:21:04;11.25;;;8.75;;
41077;SDS011;26823;42.662;23.352;2023-08-30T05:23:30;13.75;;;9.13;;
41077;SDS011;26823;42.662;23.352;2023-08-30T05:25:56;14.20;;;9.75;;
41077;SDS011;26823;42.662;23.352;2023-08-30T05:28:21;12.18;;;9.30;;
41077;SDS011;26823;42.662;23.352;2023-08-30T05:30:47;13.65;;;9.30;;
41077;SDS011;26823;42.662;23.352;2023-08-30T05:33:12;14.38;;;9.95;;
41077;SDS011;26823;42.662;23.352;2023-08-30T05:35:37;11.18;;;8.93;;
41077;SDS011;26823;42.662;23.352;2023-08-30T05:38:03;13.68;;;9.82;;
41077;SDS011;26823;42.662;23.352;2023-08-30T05:40:35;15.93;;;10.60;;
41077;SDS011;26823;42.662;23.352;2023-08-30T05:43:01;14.23;;;9.15;;
41077;SDS011;26823;42.662;23.352;2023-08-30T05:45:27;15.85;;;10.52;;
41077;SDS011;26823;42.662;23.352;2023-08-30T05:47:52;15.93;;;9.55;;
41077;SDS011;26823;42.662;23.352;2023-08-30T05:50:17;18.70;;;9.98;;
41077;SDS011;26823;42.662;23.352;2023-08-30T05:52:43;13.10;;;8.43;;
41077;SDS011;26823;42.662;23.352;2023-08-30T05:55:09;10.85;;;5.32;;
41077;SDS011;26823;42.662;23.352;2023-08-30T05:57:35;10.60;;;4.90;;
41077;SDS011;26823;42.662;23.352;2023-08-30T06:00:03;8.40;;;5.25;;
41077;SDS011;26823;42.662;23.352;2023-08-30T06:02:30;6.38;;;3.97;;
41077;SDS011;26823;42.662;23.352;2023-08-30T06:04:55;10.88;;;7.45;;
41077;SDS011;26823;42.662;23.352;2023-08-30T06:07:20;6.60;;;4.45;;
41077;SDS011;26823;42.662;23.352;2023-08-30T06:09:46;11.93;;;6.20;;
41077;SDS011;26823;42.662;23.352;2023-08-30T06:12:11;8.35;;;3.90;;
41077;SDS011;26823;42.662;23.352;2023-08-30T06:14:36;7.13;;;4.40;;
41077;SDS011;26823;42.662;23.352;2023-08-30T06:17:02;6.07;;;4.25;;
41077;SDS011;26823;42.662;23.352;2023-08-30T06:19:27;12.20;;;4.50;;
41077;SDS011;26823;42.662;23.352;2023-08-30T06:21:53;5.60;;;3.80;;
41077;SDS011;26823;42.662;23.352;2023-08-30T06:24:18;5.60;;;4.13;;
41077;SDS011;26823;42.662;23.352;2023-08-30T06:26:43;11.98;;;7.45;;
41077;SDS011;26823;42.662;23.352;2023-08-30T06:29:09;14.40;;;6.88;;
41077;SDS011;26823;42.662;23.352;2023-08-30T06:31:34;7.55;;;4.32;;
41077;SDS011;26823;42.662;23.352;2023-08-30T06:33:59;8.70;;;4.03;;
41077;SDS011;26823;42.662;23.352;2023-08-30T06:36:25;7.00;;;3.83;;
41077;SDS011;26823;42.662;23.352;2023-08-30T06:38:50;7.55;;;3.88;;
41077;SDS011;26823;42.662;23.352;2023-08-30T06:41:16;10.20;;;4.78;;
41077;SDS011;26823;42.662;23.352;2023-08-30T06:43:41;6.35;;;4.00;;
41077;SDS011;26823;42.662;23.352;2023-08-30T06:46:06;7.68;;;4.70;;
41077;SDS011;26823;42.662;23.352;2023-08-30T06:48:32;7.57;;;4.30;;
41077;SDS011;26823;42.662;23.352;2023-08-30T06:50:57;4.07;;;3.35;;
41077;SDS011;26823;42.662;23.352;2023-08-30T06:53:23;6.85;;;4.43;;
41077;SDS011;26823;42.662;23.352;2023-08-30T06:55:56;6.47;;;4.05;;
41077;SDS011;26823;42.662;23.352;2023-08-30T06:58:25;12.52;;;8.35;;
41077;SDS011;26823;42.662;23.352;2023-08-30T07:00:50;5.57;;;3.72;;
41077;SDS011;26823;42.662;23.352;2023-08-30T07:03:16;9.18;;;3.72;;
41077;SDS011;26823;42.662;23.352;2023-08-30T07:05:41;7.95;;;3.80;;
41077;SDS011;26823;42.662;23.352;2023-08-30T07:08:08;5.90;;;3.10;;
41077;SDS011;26823;42.662;23.352;2023-08-30T07:10:34;10.05;;;4.57;;
41077;SDS011;26823;42.662;23.352;2023-08-30T07:12:59;8.60;;;3.88;;
41077;SDS011;26823;42.662;23.352;2023-08-30T07:15:25;5.65;;;3.33;;
41077;SDS011;26823;42.662;23.352;2023-08-30T07:17:50;5.47;;;3.45;;
41077;SDS011;26823;42.662;23.352;2023-08-30T07:20:16;8.18;;;4.05;;
41077;SDS011;26823;42.662;23.352;2023-08-30T07:22:42;7.88;;;5.00;;
41077;SDS011;26823;42.662;23.352;2023-08-30T07:25:07;6.72;;;3.97;;
41077;SDS011;26823;42.662;23.352;2023-08-30T07:27:35;6.40;;;4.32;;
41077;SDS011;26823;42.662;23.352;2023-08-30T07:30:00;6.82;;;4.90;;
41077;SDS011;26823;42.662;23.352;2023-08-30T07:32:26;4.70;;;3.58;;
41077;SDS011;26823;42.662;23.352;2023-08-30T07:34:52;7.00;;;3.60;;
41077;SDS011;26823;42.662;23.352;2023-08-30T07:37:20;5.85;;;3.42;;
41077;SDS011;26823;42.662;23.352;2023-08-30T07:39:46;7.38;;;3.80;;
41077;SDS011;26823;42.662;23.352;2023-08-30T07:42:12;6.78;;;3.63;;
41077;SDS011;26823;42.662;23.352;2023-08-30T07:44:38;7.13;;;3.53;;
41077;SDS011;26823;42.662;23.352;2023-08-30T07:47:04;5.30;;;3.75;;
41077;SDS011;26823;42.662;23.352;2023-08-30T07:49:29;5.97;;;3.85;;
41077;SDS011;26823;42.662;23.352;2023-08-30T07:51:54;5.47;;;3.95;;
41077;SDS011;26823;42.662;23.352;2023-08-30T07:54:20;9.50;;;4.25;;
41077;SDS011;26823;42.662;23.352;2023-08-30T07:56:45;8.52;;;4.63;;
41077;SDS011;26823;42.662;23.352;2023-08-30T07:59:10;6.85;;;3.88;;
41077;SDS011;26823;42.662;23.352;2023-08-30T08:01:36;4.93;;;3.60;;
41077;SDS011;26823;42.662;23.352;2023-08-30T08:04:01;7.25;;;3.80;;
41077;SDS011;26823;42.662;23.352;2023-08-30T08:06:27;6.13;;;3.28;;
41077;SDS011;26823;42.662;23.352;2023-08-30T08:08:53;9.88;;;4.63;;
41077;SDS011;26823;42.662;23.352;2023-08-30T08:11:18;9.27;;;6.00;;
41077;SDS011;26823;42.662;23.352;2023-08-30T08:13:43;9.88;;;5.22;;
41077;SDS011;26823;42.662;23.352;2023-08-30T08:16:09;8.75;;;4.32;;
41077;SDS011;26823;42.662;23.352;2023-08-30T08:18:34;9.00;;;5.35;;
41077;SDS011;26823;42.662;23.352;2023-08-30T08:20:59;9.15;;;4.30;;
41077;SDS011;26823;42.662;23.352;2023-08-30T08:23:25;7.30;;;4.55;;
41077;SDS011;26823;42.662;23.352;2023-08-30T08:25:56;6.10;;;3.72;;
41077;SDS011;26823;42.662;23.352;2023-08-30T08:28:22;6.15;;;3.53;;
41077;SDS011;26823;42.662;23.352;2023-08-30T08:30:48;7.20;;;3.80;;
41077;SDS011;26823;42.662;23.352;2023-08-30T08:33:16;5.38;;;3.88;;
41077;SDS011;26823;42.662;23.352;2023-08-30T08:35:42;5.25;;;3.53;;
41077;SDS011;26823;42.662;23.352;2023-08-30T08:38:07;8.18;;;4.20;;
41077;SDS011;26823;42.662;23.352;2023-08-30T08:40:36;10.13;;;4.32;;
41077;SDS011;26823;42.662;23.352;2023-08-30T08:43:03;8.57;;;4.20;;
41077;SDS011;26823;42.662;23.352;2023-08-30T08:45:30;6.80;;;3.38;;
41077;SDS011;26823;42.662;23.352;2023-08-30T08:47:59;5.28;;;3.35;;
41077;SDS011;26823;42.662;23.352;2023-08-30T08:50:26;8.07;;;3.50;;
41077;SDS011;26823;42.662;23.352;2023-08-30T08:52:53;7.22;;;3.30;;
41077;SDS011;26823;42.662;23.352;2023-08-30T08:55:19;6.53;;;3.42;;
41077;SDS011;26823;42.662;23.352;2023-08-30T08:57:45;6.78;;;3.13;;
41077;SDS011;26823;42.662;23.352;2023-08-30T09:00:12;5.60;;;3.47;;
41077;SDS011;26823;42.662;23.352;2023-08-30T09:02:38;6.60;;;3.60;;
41077;SDS011;26823;42.662;23.352;2023-08-30T09:05:05;9.10;;;3.75;;
41077;SDS011;26823;42.662;23.352;2023-08-30T09:07:32;5.40;;;2.95;;
41077;SDS011;26823;42.662;23.352;2023-08-30T09:09:58;5.35;;;3.65;;
41077;SDS011;26823;42.662;23.352;2023-08-30T09:12:24;6.78;;;3.35;;
41077;SDS011;26823;42.662;23.352;2023-08-30T09:14:53;9.25;;;3.40;;
41077;SDS011;26823;42.662;23.352;2023-08-30T09:17:20;7.22;;;3.53;;
41077;SDS011;26823;42.662;23.352;2023-08-30T09:19:45;5.15;;;3.13;;
41077;SDS011;26823;42.662;23.352;2023-08-30T09:22:11;5.90;;;3.10;;
41077;SDS011;26823;42.662;23.352;2023-08-30T09:24:37;5.18;;;3.03;;
41077;SDS011;26823;42.662;23.352;2023-08-30T09:27:04;7.38;;;3.08;;
41077;SDS011;26823;42.662;23.352;2023-08-30T09:29:30;9.95;;;4.10;;
41077;SDS011;26823;42.662;23.352;2023-08-30T09:31:56;6.22;;;3.58;;
41077;SDS011;26823;42.662;23.352;2023-08-30T09:34:25;4.25;;;2.75;;
41077;SDS011;26823;42.662;23.352;2023-08-30T09:36:51;7.25;;;3.95;;
41077;SDS011;26823;42.662;23.352;2023-08-30T09:39:18;6.43;;;3.60;;
41077;SDS011;26823;42.662;23.352;2023-08-30T09:41:50;4.90;;;3.33;;
41077;SDS011;26823;42.662;23.352;2023-08-30T09:44:19;5.18;;;3.65;;
41077;SDS011;26823;42.662;23.352;2023-08-30T09:46:49;6.88;;;3.85;;
41077;SDS011;26823;42.662;23.352;2023-08-30T09:49:18;7.72;;;3.67;;
41077;SDS011;26823;42.662;23.352;2023-08-30T09:51:47;4.97;;;3.28;;
41077;SDS011;26823;42.662;23.352;2023-08-30T09:54:18;7.40;;;3.35;;
41077;SDS011;26823;42.662;23.352;2023-08-30T09:56:44;6.43;;;3.88;;
41077;SDS011;26823;42.662;23.352;2023-08-30T09:59:11;8.43;;;3.45;;
41077;SDS011;26823;42.662;23.352;2023-08-30T10:01:38;5.18;;;3.45;;
41077;SDS011;26823;42.662;23.352;2023-08-30T10:04:04;4.93;;;3.40;;
41077;SDS011;26823;42.662;23.352;2023-08-30T10:06:31;7.00;;;3.83;;
41077;SDS011;26823;42.662;23.352;2023-08-30T10:08:58;4.30;;;3.20;;
41077;SDS011;26823;42.662;23.352;2023-08-30T10:11:24;5.93;;;3.83;;
41077;SDS011;26823;42.662;23.352;2023-08-30T10:13:51;7.78;;;4.38;;
41077;SDS011;26823;42.662;23.352;2023-08-30T10:16:20;7.80;;;4.03;;
41077;SDS011;26823;42.662;23.352;2023-08-30T10:18:50;7.35;;;3.80;;
41077;SDS011;26823;42.662;23.352;2023-08-30T10:21:18;7.55;;;5.07;;
41077;SDS011;26823;42.662;23.352;2023-08-30T10:23:45;5.68;;;4.25;;
41077;SDS011;26823;42.662;23.352;2023-08-30T10:26:13;7.43;;;4.05;;
41077;SDS011;26823;42.662;23.352;2023-08-30T10:28:41;7.30;;;4.32;;
41077;SDS011;26823;42.662;23.352;2023-08-30T10:31:07;5.82;;;4.10;;
41077;SDS011;26823;42.662;23.352;2023-08-30T10:33:43;7.47;;;4.50;;
41077;SDS011;26823;42.662;23.352;2023-08-30T10:36:19;6.40;;;3.88;;
41077;SDS011;26823;42.662;23.352;2023-08-30T10:38:48;4.95;;;4.10;;
41077;SDS011;26823;42.662;23.352;2023-08-30T10:41:20;5.10;;;3.90;;
41077;SDS011;26823;42.662;23.352;2023-08-30T10:43:55;5.28;;;3.47;;
41077;SDS011;26823;42.662;23.352;2023-08-30T10:46:34;6.50;;;4.38;;
41077;SDS011;26823;42.662;23.352;2023-08-30T10:49:12;5.13;;;4.47;;
41077;SDS011;26823;42.662;23.352;2023-08-30T10:51:41;6.90;;;3.97;;
41077;SDS011;26823;42.662;23.352;2023-08-30T10:54:13;5.35;;;4.32;;
41077;SDS011;26823;42.662;23.352;2023-08-30T10:56:47;8.85;;;4.20;;
41077;SDS011;26823;42.662;23.352;2023-08-30T11:01:51;4.82;;;4.15;;
41077;SDS011;26823;42.662;23.352;2023-08-30T11:04:17;7.15;;;4.28;;
41077;SDS011;26823;42.662;23.352;2023-08-30T11:06:44;8.77;;;4.60;;
41077;SDS011;26823;42.662;23.352;2023-08-30T11:09:12;7.07;;;4.15;;
41077;SDS011;26823;42.662;23.352;2023-08-30T11:11:47;7.43;;;3.90;;
41077;SDS011;26823;42.662;23.352;2023-08-30T11:14:15;5.25;;;4.07;;
41077;SDS011;26823;42.662;23.352;2023-08-30T11:16:41;7.80;;;4.20;;
41077;SDS011;26823;42.662;23.352;2023-08-30T11:19:08;9.57;;;4.22;;
41077;SDS011;26823;42.662;23.352;2023-08-30T11:21:35;8.85;;;4.38;;
41077;SDS011;26823;42.662;23.352;2023-08-30T11:24:03;4.68;;;3.90;;
41077;SDS011;26823;42.662;23.352;2023-08-30T11:26:29;8.30;;;4.57;;
41077;SDS011;26823;42.662;23.352;2023-08-30T11:28:54;5.72;;;3.95;;
41077;SDS011;26823;42.662;23.352;2023-08-30T11:31:20;8.98;;;4.90;;
41077;SDS011;26823;42.662;23.352;2023-08-30T11:33:51;8.40;;;4.22;;
41077;SDS011;26823;42.662;23.352;2023-08-30T11:36:18;10.27;;;5.00;;
41077;SDS011;26823;42.662;23.352;2023-08-30T11:38:45;6.20;;;3.90;;
41077;SDS011;26823;42.662;23.352;2023-08-30T11:41:17;5.15;;;4.18;;
41077;SDS011;26823;42.662;23.352;2023-08-30T11:43:45;6.82;;;4.22;;
41077;SDS011;26823;42.662;23.352;2023-08-30T11:46:12;7.25;;;4.35;;
41077;SDS011;26823;42.662;23.352;2023-08-30T11:48:37;6.32;;;4.55;;
41077;SDS011;26823;42.662;23.352;2023-08-30T11:51:04;5.13;;;4.50;;
41077;SDS011;26823;42.662;23.352;2023-08-30T11:53:30;5.45;;;4.50;;
41077;SDS011;26823;42.662;23.352;2023-08-30T11:55:56;5.13;;;4.40;;
41077;SDS011;26823;42.662;23.352;2023-08-30T11:58:22;4.80;;;4.30;;
41077;SDS011;26823;42.662;23.352;2023-08-30T12:00:49;10.75;;;4.82;;
41077;SDS011;26823;42.662;23.352;2023-08-30T12:03:16;9.35;;;5.28;;
41077;SDS011;26823;42.662;23.352;2023-08-30T12:05:47;5.82;;;4.18;;
41077;SDS011;26823;42.662;23.352;2023-08-30T12:08:21;5.55;;;4.30;;
41077;SDS011;26823;42.662;23.352;2023-08-30T12:10:48;7.38;;;4.63;;
41077;SDS011;26823;42.662;23.352;2023-08-30T12:15:57;7.47;;;4.93;;
41077;SDS011;26823;42.662;23.352;2023-08-30T12:18:26;9.13;;;4.60;;
41077;SDS011;26823;42.662;23.352;2023-08-30T12:23:26;7.68;;;4.60;;
41077;SDS011;26823;42.662;23.352;2023-08-30T12:26:00;7.95;;;4.50;;
41077;SDS011;26823;42.662;23.352;2023-08-30T12:28:29;7.57;;;4.60;;
41077;SDS011;26823;42.662;23.352;2023-08-30T12:30:55;10.80;;;4.78;;
41077;SDS011;26823;42.662;23.352;2023-08-30T12:33:21;6.65;;;4.78;;
41077;SDS011;26823;42.662;23.352;2023-08-30T12:35:47;8.13;;;4.65;;
41077;SDS011;26823;42.662;23.352;2023-08-30T12:38:12;4.78;;;4.30;;
41077;SDS011;26823;42.662;23.352;2023-08-30T12:40:42;6.88;;;4.47;;
41077;SDS011;26823;42.662;23.352;2023-08-30T12:43:11;7.05;;;4.78;;
41077;SDS011;26823;42.662;23.352;2023-08-30T12:45:37;7.60;;;4.60;;
41077;SDS011;26823;42.662;23.352;2023-08-30T12:48:04;7.65;;;4.55;;
41077;SDS011;26823;42.662;23.352;2023-08-30T12:50:29;7.15;;;4.55;;
41077;SDS011;26823;42.662;23.352;2023-08-30T12:52:55;7.85;;;5.03;;
41077;SDS011;26823;42.662;23.352;2023-08-30T12:55:20;8.60;;;4.97;;
41077;SDS011;26823;42.662;23.352;2023-08-30T12:57:45;5.35;;;4.80;;
41077;SDS011;26823;42.662;23.352;2023-08-30T13:00:14;8.75;;;4.75;;
41077;SDS011;26823;42.662;23.352;2023-08-30T13:02:39;9.55;;;4.88;;
41077;SDS011;26823;42.662;23.352;2023-08-30T13:05:05;9.07;;;4.95;;
41077;SDS011;26823;42.662;23.352;2023-08-30T13:07:30;6.93;;;4.57;;
41077;SDS011;26823;42.662;23.352;2023-08-30T13:09:56;5.60;;;4.97;;
41077;SDS011;26823;42.662;23.352;2023-08-30T13:12:21;5.40;;;4.90;;
41077;SDS011;26823;42.662;23.352;2023-08-30T13:14:47;8.15;;;5.00;;
41077;SDS011;26823;42.662;23.352;2023-08-30T13:17:12;11.82;;;5.03;;
41077;SDS011;26823;42.662;23.352;2023-08-30T13:19:38;6.20;;;4.82;;
41077;SDS011;26823;42.662;23.352;2023-08-30T13:22:03;8.27;;;5.35;;
41077;SDS011;26823;42.662;23.352;2023-08-30T13:24:29;5.75;;;5.00;;
41077;SDS011;26823;42.662;23.352;2023-08-30T13:26:57;6.93;;;5.10;;
41077;SDS011;26823;42.662;23.352;2023-08-30T13:29:23;6.18;;;5.10;;
41077;SDS011;26823;42.662;23.352;2023-08-30T13:31:48;7.80;;;4.88;;
41077;SDS011;26823;42.662;23.352;2023-08-30T13:34:13;5.20;;;4.68;;
41077;SDS011;26823;42.662;23.352;2023-08-30T13:36:39;5.65;;;5.05;;
41077;SDS011;26823;42.662;23.352;2023-08-30T13:39:04;6.57;;;4.88;;
41077;SDS011;26823;42.662;23.352;2023-08-30T13:41:30;8.13;;;4.70;;
41077;SDS011;26823;42.662;23.352;2023-08-30T13:43:55;5.32;;;4.80;;
41077;SDS011;26823;42.662;23.352;2023-08-30T13:46:20;9.07;;;4.80;;
41077;SDS011;26823;42.662;23.352;2023-08-30T13:48:46;8.10;;;3.95;;
41077;SDS011;26823;42.662;23.352;2023-08-30T13:51:12;6.20;;;4.22;;
41077;SDS011;26823;42.662;23.352;2023-08-30T13:53:38;3.75;;;3.25;;
41077;SDS011;26823;42.662;23.352;2023-08-30T13:56:04;5.80;;;4.50;;
41077;SDS011;26823;42.662;23.352;2023-08-30T13:58:29;8.40;;;4.15;;
41077;SDS011;26823;42.662;23.352;2023-08-30T14:00:54;4.90;;;3.88;;
41077;SDS011;26823;42.662;23.352;2023-08-30T14:03:20;5.32;;;3.70;;
41077;SDS011;26823;42.662;23.352;2023-08-30T14:05:46;6.57;;;3.75;;
41077;SDS011;26823;42.662;23.352;2023-08-30T14:08:11;5.22;;;3.80;;
41077;SDS011;26823;42.662;23.352;2023-08-30T14:10:36;7.85;;;3.60;;
41077;SDS011;26823;42.662;23.352;2023-08-30T14:13:03;5.22;;;3.47;;
41077;SDS011;26823;42.662;23.352;2023-08-30T14:15:30;5.90;;;3.40;;
41077;SDS011;26823;42.662;23.352;2023-08-30T14:17:56;5.72;;;3.58;;
41077;SDS011;26823;42.662;23.352;2023-08-30T14:20:21;4.43;;;3.88;;
41077;SDS011;26823;42.662;23.352;2023-08-30T14:22:47;5.63;;;3.38;;
41077;SDS011;26823;42.662;23.352;2023-08-30T14:25:12;7.93;;;3.35;;
41077;SDS011;26823;42.662;23.352;2023-08-30T14:27:38;5.55;;;4.05;;
41077;SDS011;26823;42.662;23.352;2023-08-30T14:30:04;4.63;;;3.42;;
41077;SDS011;26823;42.662;23.352;2023-08-30T14:32:30;5.20;;;3.38;;
41077;SDS011;26823;42.662;23.352;2023-08-30T14:34:56;6.10;;;3.60;;
41077;SDS011;26823;42.662;23.352;2023-08-30T14:37:22;3.92;;;3.10;;
41077;SDS011;26823;42.662;23.352;2023-08-30T14:39:47;4.32;;;3.35;;